sensor_id;sensor_type;location;lat;lon;timestamp;temperature;humidity
7646;DHT22;3864;48.180;14.178;2022-08-21T00:00:19;16.40;99.90
7646;DHT22;3864;48.180;14.178;2022-08-21T00:02:50;16.40;99.90
7646;DHT22;3864;48.180;14.178;2022-08-21T00:05:18;16.40;99.90
7646;DHT22;3864;48.180;14.178;2022-08-21T00:07:45;16.40;99.90
7646;DHT22;3864;48.180;14.178;2022-08-21T00:10:15;16.40;99.90
7646;DHT22;3864;48.180;14.178;2022-08-21T00:12:44;16.40;99.90
7646;DHT22;3864;48.180;14.178;2022-08-21T00:15:14;16.40;99.90
7646;DHT22;3864;48.180;14.178;2022-08-21T00:17:42;16.40;99.90
7646;DHT22;3864;48.180;14.178;2022-08-21T00:20:13;16.40;99.90
7646;DHT22;3864;48.180;14.178;2022-08-21T00:22:40;16.40;99.90
7646;DHT22;3864;48.180;14.178;2022-08-21T00:25:09;16.40;99.90
7646;DHT22;3864;48.180;14.178;2022-08-21T00:27:39;16.40;99.90
7646;DHT22;3864;48.180;14.178;2022-08-21T00:30:09;16.40;99.90
7646;DHT22;3864;48.180;14.178;2022-08-21T00:32:38;16.40;99.90
7646;DHT22;3864;48.180;14.178;2022-08-21T00:35:10;16.40;99.90
7646;DHT22;3864;48.180;14.178;2022-08-21T00:37:38;16.40;99.90
7646;DHT22;3864;48.180;14.178;2022-08-21T00:40:09;16.40;99.90
7646;DHT22;3864;48.180;14.178;2022-08-21T00:42:39;16.40;99.90
7646;DHT22;3864;48.180;14.178;2022-08-21T00:45:08;16.40;99.90
7646;DHT22;3864;48.180;14.178;2022-08-21T00:47:36;16.40;99.90
7646;DHT22;3864;48.180;14.178;2022-08-21T00:50:05;16.40;99.90
7646;DHT22;3864;48.180;14.178;2022-08-21T00:52:35;16.40;99.90
7646;DHT22;3864;48.180;14.178;2022-08-21T00:55:06;16.40;99.90
7646;DHT22;3864;48.180;14.178;2022-08-21T00:57:36;16.40;99.90
7646;DHT22;3864;48.180;14.178;2022-08-21T01:00:11;16.40;99.90
7646;DHT22;3864;48.180;14.178;2022-08-21T01:02:39;16.40;99.90
7646;DHT22;3864;48.180;14.178;2022-08-21T01:05:07;16.40;99.90
7646;DHT22;3864;48.180;14.178;2022-08-21T01:07:35;16.40;99.90
7646;DHT22;3864;48.180;14.178;2022-08-21T01:10:04;16.40;99.90
7646;DHT22;3864;48.180;14.178;2022-08-21T01:12:32;16.40;99.90
7646;DHT22;3864;48.180;14.178;2022-08-21T01:15:06;16.40;99.90
7646;DHT22;3864;48.180;14.178;2022-08-21T01:17:35;16.50;99.90
7646;DHT22;3864;48.180;14.178;2022-08-21T01:20:07;16.50;99.90
7646;DHT22;3864;48.180;14.178;2022-08-21T01:22:37;16.50;99.90
7646;DHT22;3864;48.180;14.178;2022-08-21T01:25:06;16.50;99.90
7646;DHT22;3864;48.180;14.178;2022-08-21T01:27:34;16.50;99.90
7646;DHT22;3864;48.180;14.178;2022-08-21T01:30:09;16.50;99.90
7646;DHT22;3864;48.180;14.178;2022-08-21T01:32:37;16.40;99.90
7646;DHT22;3864;48.180;14.178;2022-08-21T01:35:06;16.50;99.90
7646;DHT22;3864;48.180;14.178;2022-08-21T01:37:34;16.50;99.90
7646;DHT22;3864;48.180;14.178;2022-08-21T01:40:05;16.50;99.90
7646;DHT22;3864;48.180;14.178;2022-08-21T01:42:34;16.50;99.90
7646;DHT22;3864;48.180;14.178;2022-08-21T01:45:01;16.50;99.90
7646;DHT22;3864;48.180;14.178;2022-08-21T01:47:29;16.50;99.90
7646;DHT22;3864;48.180;14.178;2022-08-21T01:49:56;16.50;99.90
7646;DHT22;3864;48.180;14.178;2022-08-21T01:52:24;16.50;99.90
7646;DHT22;3864;48.180;14.178;2022-08-21T01:54:51;16.50;99.90
7646;DHT22;3864;48.180;14.178;2022-08-21T01:57:21;16.50;99.90
7646;DHT22;3864;48.180;14.178;2022-08-21T01:59:49;16.50;99.90
7646;DHT22;3864;48.180;14.178;2022-08-21T02:02:16;16.50;99.90
7646;DHT22;3864;48.180;14.178;2022-08-21T02:04:44;16.50;99.90
7646;DHT22;3864;48.180;14.178;2022-08-21T02:07:11;16.50;99.90
7646;DHT22;3864;48.180;14.178;2022-08-21T02:09:38;16.50;99.90
7646;DHT22;3864;48.180;14.178;2022-08-21T02:12:09;16.50;99.90
7646;DHT22;3864;48.180;14.178;2022-08-21T02:14:38;16.50;99.90
7646;DHT22;3864;48.180;14.178;2022-08-21T02:17:06;16.50;99.90
7646;DHT22;3864;48.180;14.178;2022-08-21T02:19:33;16.50;99.90
7646;DHT22;3864;48.180;14.178;2022-08-21T02:22:01;16.50;99.90
7646;DHT22;3864;48.180;14.178;2022-08-21T02:24:28;16.50;99.90
7646;DHT22;3864;48.180;14.178;2022-08-21T02:26:55;16.50;99.90
7646;DHT22;3864;48.180;14.178;2022-08-21T02:29:23;16.50;99.90
7646;DHT22;3864;48.180;14.178;2022-08-21T02:31:52;16.50;99.90
7646;DHT22;3864;48.180;14.178;2022-08-21T02:34:19;16.50;99.90
7646;DHT22;3864;48.180;14.178;2022-08-21T02:36:47;16.50;99.90
7646;DHT22;3864;48.180;14.178;2022-08-21T02:39:14;16.50;99.90
7646;DHT22;3864;48.180;14.178;2022-08-21T02:41:42;16.40;99.90
7646;DHT22;3864;48.180;14.178;2022-08-21T02:44:09;16.40;99.90
7646;DHT22;3864;48.180;14.178;2022-08-21T02:46:37;16.50;99.90
7646;DHT22;3864;48.180;14.178;2022-08-21T02:49:06;16.50;99.90
7646;DHT22;3864;48.180;14.178;2022-08-21T02:51:33;16.50;99.90
7646;DHT22;3864;48.180;14.178;2022-08-21T02:54:01;16.50;99.90
7646;DHT22;3864;48.180;14.178;2022-08-21T02:56:28;16.50;99.90
7646;DHT22;3864;48.180;14.178;2022-08-21T02:58:56;16.40;99.90
7646;DHT22;3864;48.180;14.178;2022-08-21T03:01:23;16.40;99.90
7646;DHT22;3864;48.180;14.178;2022-08-21T03:03:51;16.40;99.90
7646;DHT22;3864;48.180;14.178;2022-08-21T03:06:22;16.40;99.90
7646;DHT22;3864;48.180;14.178;2022-08-21T03:08:50;16.40;99.90
7646;DHT22;3864;48.180;14.178;2022-08-21T03:11:17;16.40;99.90
7646;DHT22;3864;48.180;14.178;2022-08-21T03:13:46;16.40;99.90
7646;DHT22;3864;48.180;14.178;2022-08-21T03:16:13;16.40;99.90
7646;DHT22;3864;48.180;14.178;2022-08-21T03:18:41;16.40;99.90
7646;DHT22;3864;48.180;14.178;2022-08-21T03:21:08;16.40;99.90
7646;DHT22;3864;48.180;14.178;2022-08-21T03:23:37;16.40;99.90
7646;DHT22;3864;48.180;14.178;2022-08-21T03:26:05;16.40;99.90
7646;DHT22;3864;48.180;14.178;2022-08-21T03:28:33;16.40;99.90
7646;DHT22;3864;48.180;14.178;2022-08-21T03:31:00;16.30;99.90
7646;DHT22;3864;48.180;14.178;2022-08-21T03:33:28;16.30;99.90
7646;DHT22;3864;48.180;14.178;2022-08-21T03:35:59;16.30;99.90
7646;DHT22;3864;48.180;14.178;2022-08-21T03:38:28;16.30;99.90
7646;DHT22;3864;48.180;14.178;2022-08-21T03:40:58;16.30;99.90
7646;DHT22;3864;48.180;14.178;2022-08-21T03:43:26;16.30;99.90
7646;DHT22;3864;48.180;14.178;2022-08-21T03:45:54;16.30;99.90
7646;DHT22;3864;48.180;14.178;2022-08-21T03:48:21;16.30;99.90
7646;DHT22;3864;48.180;14.178;2022-08-21T03:50:52;16.30;99.90
7646;DHT22;3864;48.180;14.178;2022-08-21T03:53:19;16.20;99.90
7646;DHT22;3864;48.180;14.178;2022-08-21T03:55:48;16.20;99.90
7646;DHT22;3864;48.180;14.178;2022-08-21T03:58:20;16.20;99.90
7646;DHT22;3864;48.180;14.178;2022-08-21T04:00:51;16.20;99.90
7646;DHT22;3864;48.180;14.178;2022-08-21T04:03:20;16.20;99.90
7646;DHT22;3864;48.180;14.178;2022-08-21T04:05:47;16.20;99.90
7646;DHT22;3864;48.180;14.178;2022-08-21T04:08:16;16.20;99.90
7646;DHT22;3864;48.180;14.178;2022-08-21T04:10:46;16.20;99.90
7646;DHT22;3864;48.180;14.178;2022-08-21T04:13:14;16.20;99.90
7646;DHT22;3864;48.180;14.178;2022-08-21T04:15:43;16.20;99.90
7646;DHT22;3864;48.180;14.178;2022-08-21T04:18:10;16.20;99.90
7646;DHT22;3864;48.180;14.178;2022-08-21T04:20:39;16.10;99.90
7646;DHT22;3864;48.180;14.178;2022-08-21T04:23:08;16.20;99.90
7646;DHT22;3864;48.180;14.178;2022-08-21T04:25:35;16.20;99.90
7646;DHT22;3864;48.180;14.178;2022-08-21T04:28:03;16.20;99.90
7646;DHT22;3864;48.180;14.178;2022-08-21T04:30:30;16.20;99.90
7646;DHT22;3864;48.180;14.178;2022-08-21T04:33:00;16.30;99.90
7646;DHT22;3864;48.180;14.178;2022-08-21T04:35:28;16.30;99.90
7646;DHT22;3864;48.180;14.178;2022-08-21T04:37:56;16.30;99.90
7646;DHT22;3864;48.180;14.178;2022-08-21T04:40:25;16.30;99.90
7646;DHT22;3864;48.180;14.178;2022-08-21T04:42:55;16.40;99.90
7646;DHT22;3864;48.180;14.178;2022-08-21T04:45:25;16.40;99.90
7646;DHT22;3864;48.180;14.178;2022-08-21T04:47:54;16.40;99.90
7646;DHT22;3864;48.180;14.178;2022-08-21T04:50:26;16.40;99.90
7646;DHT22;3864;48.180;14.178;2022-08-21T04:52:54;16.50;99.90
7646;DHT22;3864;48.180;14.178;2022-08-21T04:55:22;16.50;99.90
7646;DHT22;3864;48.180;14.178;2022-08-21T04:57:53;16.60;99.90
7646;DHT22;3864;48.180;14.178;2022-08-21T05:00:22;16.60;99.90
7646;DHT22;3864;48.180;14.178;2022-08-21T05:02:51;16.60;99.90
7646;DHT22;3864;48.180;14.178;2022-08-21T05:05:24;16.60;99.90
7646;DHT22;3864;48.180;14.178;2022-08-21T05:07:51;16.60;99.90
7646;DHT22;3864;48.180;14.178;2022-08-21T05:10:19;16.60;99.90
7646;DHT22;3864;48.180;14.178;2022-08-21T05:12:48;16.50;99.90
7646;DHT22;3864;48.180;14.178;2022-08-21T05:15:16;16.50;99.90
7646;DHT22;3864;48.180;14.178;2022-08-21T05:17:43;16.60;99.90
7646;DHT22;3864;48.180;14.178;2022-08-21T05:20:13;16.60;99.90
7646;DHT22;3864;48.180;14.178;2022-08-21T05:22:42;16.60;99.90
7646;DHT22;3864;48.180;14.178;2022-08-21T05:25:09;16.70;99.90
7646;DHT22;3864;48.180;14.178;2022-08-21T05:27:37;16.70;99.90
7646;DHT22;3864;48.180;14.178;2022-08-21T05:30:06;16.70;99.90
7646;DHT22;3864;48.180;14.178;2022-08-21T05:32:34;16.70;99.90
7646;DHT22;3864;48.180;14.178;2022-08-21T05:35:02;16.80;99.90
7646;DHT22;3864;48.180;14.178;2022-08-21T05:37:29;16.80;99.90
7646;DHT22;3864;48.180;14.178;2022-08-21T05:39:59;16.80;99.90
7646;DHT22;3864;48.180;14.178;2022-08-21T05:42:27;16.80;99.90
7646;DHT22;3864;48.180;14.178;2022-08-21T05:44:54;16.80;99.90
7646;DHT22;3864;48.180;14.178;2022-08-21T05:47:21;16.90;99.90
7646;DHT22;3864;48.180;14.178;2022-08-21T05:49:49;16.90;99.90
7646;DHT22;3864;48.180;14.178;2022-08-21T05:52:19;16.90;99.90
7646;DHT22;3864;48.180;14.178;2022-08-21T05:54:46;17.00;99.90
7646;DHT22;3864;48.180;14.178;2022-08-21T05:57:15;17.00;99.90
7646;DHT22;3864;48.180;14.178;2022-08-21T05:59:43;17.00;99.90
7646;DHT22;3864;48.180;14.178;2022-08-21T06:02:10;17.10;99.90
7646;DHT22;3864;48.180;14.178;2022-08-21T06:04:38;17.10;99.90
7646;DHT22;3864;48.180;14.178;2022-08-21T06:07:06;17.20;99.90
7646;DHT22;3864;48.180;14.178;2022-08-21T06:09:34;17.20;99.90
7646;DHT22;3864;48.180;14.178;2022-08-21T06:12:04;17.20;99.90
7646;DHT22;3864;48.180;14.178;2022-08-21T06:14:33;17.20;99.90
7646;DHT22;3864;48.180;14.178;2022-08-21T06:17:05;17.20;99.90
7646;DHT22;3864;48.180;14.178;2022-08-21T06:19:33;17.30;99.90
7646;DHT22;3864;48.180;14.178;2022-08-21T06:22:01;17.30;99.90
7646;DHT22;3864;48.180;14.178;2022-08-21T06:24:28;17.40;99.90
7646;DHT22;3864;48.180;14.178;2022-08-21T06:26:56;17.30;99.90
7646;DHT22;3864;48.180;14.178;2022-08-21T06:29:24;17.30;99.90
7646;DHT22;3864;48.180;14.178;2022-08-21T06:31:53;17.30;99.90
7646;DHT22;3864;48.180;14.178;2022-08-21T06:34:21;17.40;99.90
7646;DHT22;3864;48.180;14.178;2022-08-21T06:36:48;17.30;99.90
7646;DHT22;3864;48.180;14.178;2022-08-21T06:39:16;17.30;99.90
7646;DHT22;3864;48.180;14.178;2022-08-21T06:41:43;17.30;99.90
7646;DHT22;3864;48.180;14.178;2022-08-21T06:44:11;17.30;99.90
7646;DHT22;3864;48.180;14.178;2022-08-21T06:46:39;17.50;99.90
7646;DHT22;3864;48.180;14.178;2022-08-21T06:49:08;17.60;99.90
7646;DHT22;3864;48.180;14.178;2022-08-21T06:51:35;17.60;99.90
7646;DHT22;3864;48.180;14.178;2022-08-21T06:54:03;17.70;99.90
7646;DHT22;3864;48.180;14.178;2022-08-21T06:56:30;17.70;99.90
7646;DHT22;3864;48.180;14.178;2022-08-21T06:58:58;17.70;99.90
7646;DHT22;3864;48.180;14.178;2022-08-21T07:01:27;17.70;99.90
7646;DHT22;3864;48.180;14.178;2022-08-21T07:03:54;17.70;99.90
7646;DHT22;3864;48.180;14.178;2022-08-21T07:06:24;17.80;99.90
7646;DHT22;3864;48.180;14.178;2022-08-21T07:08:51;17.80;99.90
7646;DHT22;3864;48.180;14.178;2022-08-21T07:11:21;17.80;99.90
7646;DHT22;3864;48.180;14.178;2022-08-21T07:13:49;17.90;99.90
7646;DHT22;3864;48.180;14.178;2022-08-21T07:16:21;17.90;99.90
7646;DHT22;3864;48.180;14.178;2022-08-21T07:18:55;17.90;99.90
7646;DHT22;3864;48.180;14.178;2022-08-21T07:21:24;18.00;99.90
7646;DHT22;3864;48.180;14.178;2022-08-21T07:23:52;18.00;99.90
7646;DHT22;3864;48.180;14.178;2022-08-21T07:26:22;18.00;99.90
7646;DHT22;3864;48.180;14.178;2022-08-21T07:28:50;18.10;99.90
7646;DHT22;3864;48.180;14.178;2022-08-21T07:31:20;18.00;99.90
7646;DHT22;3864;48.180;14.178;2022-08-21T07:33:47;18.00;99.90
7646;DHT22;3864;48.180;14.178;2022-08-21T07:36:15;18.00;99.90
7646;DHT22;3864;48.180;14.178;2022-08-21T07:38:44;18.00;99.90
7646;DHT22;3864;48.180;14.178;2022-08-21T07:41:14;18.00;99.90
7646;DHT22;3864;48.180;14.178;2022-08-21T07:43:43;18.00;99.90
7646;DHT22;3864;48.180;14.178;2022-08-21T07:46:10;18.00;99.90
7646;DHT22;3864;48.180;14.178;2022-08-21T07:48:38;18.00;99.90
7646;DHT22;3864;48.180;14.178;2022-08-21T07:51:08;18.10;99.90
7646;DHT22;3864;48.180;14.178;2022-08-21T07:53:36;18.10;99.90
7646;DHT22;3864;48.180;14.178;2022-08-21T07:56:19;18.20;99.90
7646;DHT22;3864;48.180;14.178;2022-08-21T07:58:47;18.30;99.90
7646;DHT22;3864;48.180;14.178;2022-08-21T08:01:14;18.30;99.90
7646;DHT22;3864;48.180;14.178;2022-08-21T08:03:42;18.30;99.90
7646;DHT22;3864;48.180;14.178;2022-08-21T08:06:10;18.40;99.90
7646;DHT22;3864;48.180;14.178;2022-08-21T08:08:38;18.40;99.90
7646;DHT22;3864;48.180;14.178;2022-08-21T08:11:06;18.40;99.90
7646;DHT22;3864;48.180;14.178;2022-08-21T08:13:40;18.40;99.90
7646;DHT22;3864;48.180;14.178;2022-08-21T08:16:08;18.40;99.90
7646;DHT22;3864;48.180;14.178;2022-08-21T08:18:35;18.30;99.90
7646;DHT22;3864;48.180;14.178;2022-08-21T08:21:03;18.30;99.90
7646;DHT22;3864;48.180;14.178;2022-08-21T08:23:31;18.30;99.90
7646;DHT22;3864;48.180;14.178;2022-08-21T08:25:58;18.40;99.90
7646;DHT22;3864;48.180;14.178;2022-08-21T08:28:28;18.30;99.90
7646;DHT22;3864;48.180;14.178;2022-08-21T08:30:59;18.30;99.90
7646;DHT22;3864;48.180;14.178;2022-08-21T08:33:27;18.30;99.90
7646;DHT22;3864;48.180;14.178;2022-08-21T08:35:54;18.30;99.90
7646;DHT22;3864;48.180;14.178;2022-08-21T08:38:24;18.30;99.90
7646;DHT22;3864;48.180;14.178;2022-08-21T08:40:55;18.40;99.90
7646;DHT22;3864;48.180;14.178;2022-08-21T08:43:28;18.40;99.90
7646;DHT22;3864;48.180;14.178;2022-08-21T08:46:01;18.40;99.90
7646;DHT22;3864;48.180;14.178;2022-08-21T08:48:41;18.50;99.90
7646;DHT22;3864;48.180;14.178;2022-08-21T08:51:16;18.50;99.90
7646;DHT22;3864;48.180;14.178;2022-08-21T08:53:50;18.70;99.90
7646;DHT22;3864;48.180;14.178;2022-08-21T08:56:25;18.70;99.90
7646;DHT22;3864;48.180;14.178;2022-08-21T08:58:53;18.80;99.90
7646;DHT22;3864;48.180;14.178;2022-08-21T09:01:24;18.90;99.90
7646;DHT22;3864;48.180;14.178;2022-08-21T09:03:51;19.00;99.90
7646;DHT22;3864;48.180;14.178;2022-08-21T09:06:33;19.10;99.90
7646;DHT22;3864;48.180;14.178;2022-08-21T09:09:12;19.00;99.90
7646;DHT22;3864;48.180;14.178;2022-08-21T09:11:46;19.00;99.90
7646;DHT22;3864;48.180;14.178;2022-08-21T09:14:20;19.00;99.90
7646;DHT22;3864;48.180;14.178;2022-08-21T09:16:58;18.90;99.90
7646;DHT22;3864;48.180;14.178;2022-08-21T09:19:40;18.90;99.90
7646;DHT22;3864;48.180;14.178;2022-08-21T09:22:19;18.90;99.90
7646;DHT22;3864;48.180;14.178;2022-08-21T09:25:03;19.00;99.90
7646;DHT22;3864;48.180;14.178;2022-08-21T09:27:35;19.00;99.90
7646;DHT22;3864;48.180;14.178;2022-08-21T09:30:06;19.00;99.90
7646;DHT22;3864;48.180;14.178;2022-08-21T09:32:38;19.00;99.90
7646;DHT22;3864;48.180;14.178;2022-08-21T09:35:09;18.90;99.90
7646;DHT22;3864;48.180;14.178;2022-08-21T09:37:48;18.90;99.90
7646;DHT22;3864;48.180;14.178;2022-08-21T09:40:30;18.90;99.90
7646;DHT22;3864;48.180;14.178;2022-08-21T09:43:02;18.90;99.90
7646;DHT22;3864;48.180;14.178;2022-08-21T09:45:30;19.00;99.90
7646;DHT22;3864;48.180;14.178;2022-08-21T09:48:11;19.00;99.90
7646;DHT22;3864;48.180;14.178;2022-08-21T09:50:39;19.10;99.90
7646;DHT22;3864;48.180;14.178;2022-08-21T09:53:15;19.10;99.90
7646;DHT22;3864;48.180;14.178;2022-08-21T09:55:48;19.20;99.90
7646;DHT22;3864;48.180;14.178;2022-08-21T09:58:36;19.20;99.90
7646;DHT22;3864;48.180;14.178;2022-08-21T10:01:05;19.20;99.90
7646;DHT22;3864;48.180;14.178;2022-08-21T10:03:35;19.10;99.90
7646;DHT22;3864;48.180;14.178;2022-08-21T10:06:03;19.10;99.90
7646;DHT22;3864;48.180;14.178;2022-08-21T10:08:35;19.20;99.90
7646;DHT22;3864;48.180;14.178;2022-08-21T10:11:06;19.30;99.90
7646;DHT22;3864;48.180;14.178;2022-08-21T10:13:47;19.60;99.90
7646;DHT22;3864;48.180;14.178;2022-08-21T10:16:27;19.90;99.90
7646;DHT22;3864;48.180;14.178;2022-08-21T10:19:12;20.30;99.90
7646;DHT22;3864;48.180;14.178;2022-08-21T10:22:00;20.90;99.90
7646;DHT22;3864;48.180;14.178;2022-08-21T10:24:32;21.40;99.90
7646;DHT22;3864;48.180;14.178;2022-08-21T10:27:07;21.70;99.90
7646;DHT22;3864;48.180;14.178;2022-08-21T10:29:49;21.80;99.90
7646;DHT22;3864;48.180;14.178;2022-08-21T10:32:36;22.10;99.90
7646;DHT22;3864;48.180;14.178;2022-08-21T10:35:13;22.50;99.90
7646;DHT22;3864;48.180;14.178;2022-08-21T10:37:52;23.40;99.90
7646;DHT22;3864;48.180;14.178;2022-08-21T10:40:27;23.80;99.90
7646;DHT22;3864;48.180;14.178;2022-08-21T10:43:07;23.90;99.90
7646;DHT22;3864;48.180;14.178;2022-08-21T10:45:49;24.50;99.90
7646;DHT22;3864;48.180;14.178;2022-08-21T10:48:25;24.90;99.90
7646;DHT22;3864;48.180;14.178;2022-08-21T10:51:03;24.90;99.90
7646;DHT22;3864;48.180;14.178;2022-08-21T10:53:41;24.90;99.90
7646;DHT22;3864;48.180;14.178;2022-08-21T10:56:17;25.20;99.90
7646;DHT22;3864;48.180;14.178;2022-08-21T10:58:53;24.60;99.90
7646;DHT22;3864;48.180;14.178;2022-08-21T11:01:31;24.20;99.90
7646;DHT22;3864;48.180;14.178;2022-08-21T11:04:09;23.70;99.90
7646;DHT22;3864;48.180;14.178;2022-08-21T11:06:44;23.30;99.90
7646;DHT22;3864;48.180;14.178;2022-08-21T11:09:14;23.10;99.90
7646;DHT22;3864;48.180;14.178;2022-08-21T11:11:47;23.10;99.90
7646;DHT22;3864;48.180;14.178;2022-08-21T11:14:21;23.10;99.90
7646;DHT22;3864;48.180;14.178;2022-08-21T11:16:56;23.00;99.90
7646;DHT22;3864;48.180;14.178;2022-08-21T11:19:30;22.80;99.90
7646;DHT22;3864;48.180;14.178;2022-08-21T11:22:06;22.00;99.90
7646;DHT22;3864;48.180;14.178;2022-08-21T11:24:40;20.80;99.90
7646;DHT22;3864;48.180;14.178;2022-08-21T11:27:21;19.60;99.90
7646;DHT22;3864;48.180;14.178;2022-08-21T11:29:53;18.90;99.90
7646;DHT22;3864;48.180;14.178;2022-08-21T11:32:54;18.30;99.90
7646;DHT22;3864;48.180;14.178;2022-08-21T11:35:32;17.90;99.90
7646;DHT22;3864;48.180;14.178;2022-08-21T11:38:22;17.70;99.90
7646;DHT22;3864;48.180;14.178;2022-08-21T11:41:06;17.50;99.90
7646;DHT22;3864;48.180;14.178;2022-08-21T11:43:40;17.40;99.90
7646;DHT22;3864;48.180;14.178;2022-08-21T11:46:17;17.30;99.90
7646;DHT22;3864;48.180;14.178;2022-08-21T11:48:56;17.10;99.90
7646;DHT22;3864;48.180;14.178;2022-08-21T11:51:31;17.00;99.90
7646;DHT22;3864;48.180;14.178;2022-08-21T11:54:05;17.00;99.90
7646;DHT22;3864;48.180;14.178;2022-08-21T11:56:37;16.90;99.90
7646;DHT22;3864;48.180;14.178;2022-08-21T11:59:11;16.80;99.90
7646;DHT22;3864;48.180;14.178;2022-08-21T12:01:43;16.60;99.90
7646;DHT22;3864;48.180;14.178;2022-08-21T12:04:18;16.40;99.90
7646;DHT22;3864;48.180;14.178;2022-08-21T12:06:49;16.30;99.90
7646;DHT22;3864;48.180;14.178;2022-08-21T12:09:32;16.20;99.90
7646;DHT22;3864;48.180;14.178;2022-08-21T12:12:04;16.30;99.90
7646;DHT22;3864;48.180;14.178;2022-08-21T12:14:38;16.40;99.90
7646;DHT22;3864;48.180;14.178;2022-08-21T12:17:08;16.50;99.90
7646;DHT22;3864;48.180;14.178;2022-08-21T12:19:36;16.70;99.90
7646;DHT22;3864;48.180;14.178;2022-08-21T12:22:13;16.60;99.90
7646;DHT22;3864;48.180;14.178;2022-08-21T12:24:45;16.60;99.90
7646;DHT22;3864;48.180;14.178;2022-08-21T12:27:27;16.50;99.90
7646;DHT22;3864;48.180;14.178;2022-08-21T12:29:58;16.60;99.90
7646;DHT22;3864;48.180;14.178;2022-08-21T12:32:27;16.60;99.90
7646;DHT22;3864;48.180;14.178;2022-08-21T12:35:02;16.70;99.90
7646;DHT22;3864;48.180;14.178;2022-08-21T12:37:38;16.80;99.90
7646;DHT22;3864;48.180;14.178;2022-08-21T12:40:20;16.80;99.90
7646;DHT22;3864;48.180;14.178;2022-08-21T12:42:53;16.90;99.90
7646;DHT22;3864;48.180;14.178;2022-08-21T12:45:28;16.90;99.90
7646;DHT22;3864;48.180;14.178;2022-08-21T12:48:00;16.90;99.90
7646;DHT22;3864;48.180;14.178;2022-08-21T12:50:35;16.80;99.90
7646;DHT22;3864;48.180;14.178;2022-08-21T12:53:07;16.90;99.90
7646;DHT22;3864;48.180;14.178;2022-08-21T12:55:41;17.00;99.90
7646;DHT22;3864;48.180;14.178;2022-08-21T12:58:17;17.00;99.90
7646;DHT22;3864;48.180;14.178;2022-08-21T13:00:49;17.00;99.90
7646;DHT22;3864;48.180;14.178;2022-08-21T13:03:19;17.00;99.90
7646;DHT22;3864;48.180;14.178;2022-08-21T13:05:46;17.10;99.90
7646;DHT22;3864;48.180;14.178;2022-08-21T13:08:18;17.30;99.90
7646;DHT22;3864;48.180;14.178;2022-08-21T13:11:09;17.40;99.90
7646;DHT22;3864;48.180;14.178;2022-08-21T13:13:37;17.40;99.90
7646;DHT22;3864;48.180;14.178;2022-08-21T13:16:06;17.40;99.90
7646;DHT22;3864;48.180;14.178;2022-08-21T13:18:36;17.50;99.90
7646;DHT22;3864;48.180;14.178;2022-08-21T13:21:11;17.50;99.90
7646;DHT22;3864;48.180;14.178;2022-08-21T13:23:40;17.70;99.90
7646;DHT22;3864;48.180;14.178;2022-08-21T13:26:14;17.90;99.90
7646;DHT22;3864;48.180;14.178;2022-08-21T13:28:42;17.80;99.90
7646;DHT22;3864;48.180;14.178;2022-08-21T13:31:18;17.60;99.90
7646;DHT22;3864;48.180;14.178;2022-08-21T13:33:48;17.30;99.90
7646;DHT22;3864;48.180;14.178;2022-08-21T13:36:20;17.10;99.90
7646;DHT22;3864;48.180;14.178;2022-08-21T13:38:48;17.00;99.90
7646;DHT22;3864;48.180;14.178;2022-08-21T13:41:21;17.00;99.90
7646;DHT22;3864;48.180;14.178;2022-08-21T13:43:58;17.00;99.90
7646;DHT22;3864;48.180;14.178;2022-08-21T13:46:29;16.90;99.90
7646;DHT22;3864;48.180;14.178;2022-08-21T13:48:59;17.00;99.90
7646;DHT22;3864;48.180;14.178;2022-08-21T13:51:28;17.10;99.90
7646;DHT22;3864;48.180;14.178;2022-08-21T13:53:57;17.20;99.90
7646;DHT22;3864;48.180;14.178;2022-08-21T13:56:29;17.20;99.90
7646;DHT22;3864;48.180;14.178;2022-08-21T13:58:57;17.30;99.90
7646;DHT22;3864;48.180;14.178;2022-08-21T14:01:28;17.40;99.90
7646;DHT22;3864;48.180;14.178;2022-08-21T14:04:02;17.50;99.90
7646;DHT22;3864;48.180;14.178;2022-08-21T14:06:36;17.70;99.90
7646;DHT22;3864;48.180;14.178;2022-08-21T14:09:09;17.80;99.90
7646;DHT22;3864;48.180;14.178;2022-08-21T14:11:39;18.00;99.90
7646;DHT22;3864;48.180;14.178;2022-08-21T14:14:19;18.20;99.90
7646;DHT22;3864;48.180;14.178;2022-08-21T14:16:54;18.40;99.90
7646;DHT22;3864;48.180;14.178;2022-08-21T14:19:24;18.80;99.90
7646;DHT22;3864;48.180;14.178;2022-08-21T14:21:52;19.20;99.90
7646;DHT22;3864;48.180;14.178;2022-08-21T14:24:29;19.80;99.90
7646;DHT22;3864;48.180;14.178;2022-08-21T14:27:03;20.40;99.90
7646;DHT22;3864;48.180;14.178;2022-08-21T14:29:35;20.90;99.90
7646;DHT22;3864;48.180;14.178;2022-08-21T14:32:11;21.30;99.90
7646;DHT22;3864;48.180;14.178;2022-08-21T14:34:39;21.40;99.90
7646;DHT22;3864;48.180;14.178;2022-08-21T14:37:06;21.80;99.90
7646;DHT22;3864;48.180;14.178;2022-08-21T14:39:34;21.70;99.90
7646;DHT22;3864;48.180;14.178;2022-08-21T14:42:04;22.00;99.90
7646;DHT22;3864;48.180;14.178;2022-08-21T14:44:33;22.30;99.90
7646;DHT22;3864;48.180;14.178;2022-08-21T14:47:00;22.00;99.90
7646;DHT22;3864;48.180;14.178;2022-08-21T14:49:28;21.60;99.90
7646;DHT22;3864;48.180;14.178;2022-08-21T14:51:56;21.30;99.90
7646;DHT22;3864;48.180;14.178;2022-08-21T14:54:24;21.20;99.90
7646;DHT22;3864;48.180;14.178;2022-08-21T14:56:51;21.00;99.90
7646;DHT22;3864;48.180;14.178;2022-08-21T14:59:21;20.80;99.90
7646;DHT22;3864;48.180;14.178;2022-08-21T15:01:49;20.60;99.90
7646;DHT22;3864;48.180;14.178;2022-08-21T15:04:17;20.60;99.90
7646;DHT22;3864;48.180;14.178;2022-08-21T15:06:45;20.50;99.90
7646;DHT22;3864;48.180;14.178;2022-08-21T15:09:12;20.30;99.90
7646;DHT22;3864;48.180;14.178;2022-08-21T15:11:39;20.30;99.90
7646;DHT22;3864;48.180;14.178;2022-08-21T15:14:08;20.30;99.90
7646;DHT22;3864;48.180;14.178;2022-08-21T15:16:38;20.10;99.90
7646;DHT22;3864;48.180;14.178;2022-08-21T15:19:05;19.90;99.90
7646;DHT22;3864;48.180;14.178;2022-08-21T15:21:32;19.70;99.90
7646;DHT22;3864;48.180;14.178;2022-08-21T15:24:00;19.60;99.90
7646;DHT22;3864;48.180;14.178;2022-08-21T15:26:27;19.50;99.90
7646;DHT22;3864;48.180;14.178;2022-08-21T15:28:55;19.40;99.90
7646;DHT22;3864;48.180;14.178;2022-08-21T15:31:22;19.30;99.90
7646;DHT22;3864;48.180;14.178;2022-08-21T15:33:51;19.20;99.90
7646;DHT22;3864;48.180;14.178;2022-08-21T15:36:18;19.00;99.90
7646;DHT22;3864;48.180;14.178;2022-08-21T15:38:46;19.00;99.90
7646;DHT22;3864;48.180;14.178;2022-08-21T15:41:14;19.00;99.90
7646;DHT22;3864;48.180;14.178;2022-08-21T15:43:45;18.90;99.90
7646;DHT22;3864;48.180;14.178;2022-08-21T15:46:14;18.80;99.90
7646;DHT22;3864;48.180;14.178;2022-08-21T15:48:42;18.80;99.90
7646;DHT22;3864;48.180;14.178;2022-08-21T15:51:14;18.70;99.90
7646;DHT22;3864;48.180;14.178;2022-08-21T15:53:42;18.50;99.90
7646;DHT22;3864;48.180;14.178;2022-08-21T15:56:25;18.30;99.90
7646;DHT22;3864;48.180;14.178;2022-08-21T15:58:58;18.10;99.90
7646;DHT22;3864;48.180;14.178;2022-08-21T16:01:26;17.90;99.90
7646;DHT22;3864;48.180;14.178;2022-08-21T16:03:55;17.80;99.90
7646;DHT22;3864;48.180;14.178;2022-08-21T16:06:24;17.80;99.90